Time;durP1;ratioP1;P1;durP2;ratioP2;P2;SDS_P1;SDS_P2;PMS_P1;PMS_P2;Temp;Humidity;BMP_temperature;BMP_pressure;BME280_temperature;BME280_humidity;BME280_pressure;Samples;Min_cycle;Max_cycle;Signal;HPM_P1;HPM_P2
2022/10/22 00:01:53;;;;;;;3.38;0.98;;;13.70;41.30;;;;;;7388998;19;20014;-68
2022/10/22 00:04:25;;;;;;;1.25;0.60;;;13.70;42.50;;;;;;7392593;19;20006;-68
2022/10/22 00:06:58;;;;;;;2.80;0.60;;;13.60;40.50;;;;;;7389565;19;20526;-68
2022/10/22 00:09:28;;;;;;;3.00;0.45;;;13.60;41.60;;;;;;7390346;19;20014;-68
2022/10/22 00:11:58;;;;;;;4.22;0.70;;;13.60;41.00;;;;;;7390327;19;20550;-68
2022/10/22 00:14:28;;;;;;;2.05;0.77;;;13.60;41.20;;;;;;7391317;19;20015;-66
2022/10/22 00:16:59;;;;;;;2.83;0.50;;;13.50;43.10;;;;;;7389711;19;20014;-67
2022/10/22 00:19:32;;;;;;;3.00;0.68;;;13.50;44.30;;;;;;7390367;19;20011;-68
2022/10/22 00:22:04;;;;;;;1.98;0.50;;;13.40;44.30;;;;;;7387173;19;20014;-68
2022/10/22 00:24:34;;;;;;;1.15;0.50;;;13.40;46.40;;;;;;7395329;19;20086;-68
2022/10/22 00:27:05;;;;;;;4.32;0.98;;;13.40;47.50;;;;;;7396544;19;20018;-67
2022/10/22 00:29:34;;;;;;;2.30;0.60;;;13.40;48.10;;;;;;7398737;19;20014;-68
2022/10/22 00:32:06;;;;;;;1.08;0.50;;;13.50;47.80;;;;;;7397363;19;20018;-68
2022/10/22 00:34:38;;;;;;;2.95;0.82;;;13.40;47.00;;;;;;7398456;19;20026;-68
2022/10/22 00:37:08;;;;;;;3.85;0.70;;;13.40;46.80;;;;;;7396239;19;20331;-68
2022/10/22 00:39:37;;;;;;;5.60;1.00;;;13.40;46.40;;;;;;7397580;19;20039;-67
2022/10/22 00:42:07;;;;;;;2.30;0.70;;;13.40;48.40;;;;;;7395570;19;20042;-67
2022/10/22 00:45:22;;;;;;;2.58;0.60;;;13.40;49.10;;;;;;7397838;19;20348;-67
2022/10/22 00:47:59;;;;;;;2.40;0.50;;;13.40;48.30;;;;;;7391542;19;20015;-67
2022/10/22 00:50:35;;;;;;;2.13;0.60;;;13.40;47.70;;;;;;7395070;19;20014;-67
2022/10/22 00:53:09;;;;;;;0.75;0.32;;;13.40;48.50;;;;;;7398261;19;20034;-67
2022/10/22 00:55:40;;;;;;;1.00;0.35;;;13.40;46.50;;;;;;7396947;19;20030;-69
2022/10/22 00:58:10;;;;;;;0.85;0.30;;;13.40;44.60;;;;;;7394914;19;20749;-67
2022/10/22 01:00:40;;;;;;;2.13;0.43;;;13.50;45.70;;;;;;7396471;19;20010;-68
2022/10/22 01:03:10;;;;;;;6.07;0.50;;;13.50;45.30;;;;;;7396673;19;20006;-67
2022/10/22 01:05:48;;;;;;;3.28;0.50;;;13.50;45.00;;;;;;7397198;19;20487;-67
2022/10/22 01:08:28;;;;;;;1.77;0.50;;;13.50;44.30;;;;;;7397228;19;20110;-68
2022/10/22 01:11:11;;;;;;;0.80;0.40;;;13.50;44.30;;;;;;7395906;19;20015;-68
2022/10/22 01:13:50;;;;;;;3.13;0.70;;;13.50;43.10;;;;;;7397501;19;20184;-68
2022/10/22 01:16:28;;;;;;;1.77;0.55;;;13.60;42.90;;;;;;7396717;19;20042;-67
2022/10/22 01:19:05;;;;;;;1.63;0.50;;;13.60;43.50;;;;;;7397095;19;20011;-67
2022/10/22 01:21:43;;;;;;;0.70;0.30;;;13.60;43.10;;;;;;7394064;19;20022;-67
2022/10/22 01:24:39;;;;;;;3.60;0.50;;;13.60;44.30;;;;;;7397349;19;20481;-68
2022/10/22 01:27:21;;;;;;;1.25;0.52;;;13.60;42.30;;;;;;7394810;19;20043;-68
2022/10/22 01:29:56;;;;;;;1.83;0.43;;;13.60;43.40;;;;;;7396190;19;20384;-68
2022/10/22 01:32:29;;;;;;;3.53;0.55;;;13.60;43.60;;;;;;7394400;19;20015;-68
2022/10/22 01:35:03;;;;;;;1.00;0.50;;;13.50;45.30;;;;;;7394678;19;20039;-67
2022/10/22 01:37:36;;;;;;;1.95;0.50;;;13.50;45.40;;;;;;7392202;19;20042;-67
2022/10/22 01:40:09;;;;;;;3.85;0.60;;;13.50;45.50;;;;;;7395278;19;20034;-67
2022/10/22 01:42:39;;;;;;;2.20;0.60;;;13.50;46.60;;;;;;7392200;19;20007;-67
2022/10/22 01:45:16;;;;;;;1.88;0.50;;;13.40;48.30;;;;;;7396830;19;20014;-66
2022/10/22 01:47:58;;;;;;;1.27;0.55;;;13.40;48.70;;;;;;7392883;19;20518;-67
2022/10/22 01:50:47;;;;;;;1.30;0.70;;;13.40;48.70;;;;;;7395207;19;20029;-67
2022/10/22 01:53:27;;;;;;;4.18;1.10;;;13.40;48.70;;;;;;7395676;19;20010;-68
2022/10/22 01:56:11;;;;;;;3.03;0.95;;;13.40;48.90;;;;;;7395696;19;20034;-67
2022/10/22 01:58:47;;;;;;;0.75;0.52;;;13.40;51.00;;;;;;7395559;19;20045;-67
2022/10/22 02:01:28;;;;;;;3.42;0.50;;;13.40;51.60;;;;;;7394236;19;20007;-67
2022/10/22 02:04:03;;;;;;;3.10;0.65;;;13.40;51.80;;;;;;7395876;19;20010;-66
2022/10/22 02:06:35;;;;;;;2.45;0.50;;;13.40;51.30;;;;;;7392912;19;20014;-67
2022/10/22 02:09:05;;;;;;;2.58;0.55;;;13.40;50.40;;;;;;7396045;19;20015;-67
2022/10/22 02:11:36;;;;;;;1.52;0.40;;;13.40;48.40;;;;;;7393257;19;20230;-67
2022/10/22 02:14:07;;;;;;;3.03;0.40;;;13.40;46.80;;;;;;7395798;19;20014;-67
2022/10/22 02:16:43;;;;;;;1.45;0.50;;;13.50;46.70;;;;;;7392860;19;20097;-67
2022/10/22 02:19:19;;;;;;;1.88;0.80;;;13.50;45.70;;;;;;7395501;19;20050;-66
2022/10/22 02:21:49;;;;;;;2.35;0.75;;;13.50;44.30;;;;;;7393520;19;20052;-67
2022/10/22 02:24:20;;;;;;;2.17;0.70;;;13.50;44.30;;;;;;7395165;19;20348;-67
2022/10/22 02:26:56;;;;;;;2.20;0.80;;;13.50;44.90;;;;;;7392807;19;20532;-67
2022/10/22 02:29:31;;;;;;;10.38;1.08;;;13.50;44.40;;;;;;7394152;19;20119;-67
2022/10/22 02:32:07;;;;;;;5.00;1.27;;;13.50;43.70;;;;;;7393737;19;20018;-67
2022/10/22 02:34:37;;;;;;;4.40;1.92;;;13.50;43.50;;;;;;7393987;19;20466;-67
2022/10/22 02:37:07;;;;;;;2.75;0.63;;;13.50;44.30;;;;;;7392560;19;20355;-67
2022/10/22 02:39:38;;;;;;;2.03;0.50;;;13.40;43.80;;;;;;7393607;19;20038;-67
2022/10/22 02:42:11;;;;;;;1.88;0.73;;;13.50;42.50;;;;;;7392894;19;20011;-67
2022/10/22 02:44:40;;;;;;;4.40;0.60;;;13.50;43.80;;;;;;7394328;19;20372;-67
2022/10/22 02:47:13;;;;;;;1.88;0.50;;;13.40;44.90;;;;;;7392096;19;20014;-67
2022/10/22 02:49:42;;;;;;;3.58;0.50;;;13.40;45.80;;;;;;7393176;19;20397;-67
2022/10/22 02:52:12;;;;;;;2.65;0.60;;;13.40;46.70;;;;;;7393380;19;20021;-67
2022/10/22 02:54:42;;;;;;;3.47;0.70;;;13.40;47.80;;;;;;7394245;19;20014;-68
2022/10/22 02:57:12;;;;;;;2.33;0.55;;;13.30;48.30;;;;;;7392538;19;20003;-67
2022/10/22 02:59:41;;;;;;;1.48;0.77;;;13.30;48.80;;;;;;7393026;19;20031;-68
2022/10/22 03:02:14;;;;;;;0.80;0.50;;;13.20;48.40;;;;;;7392335;19;20351;-68
2022/10/22 03:04:43;;;;;;;3.80;0.90;;;13.20;48.80;;;;;;7393157;19;20014;-67
2022/10/22 03:07:13;;;;;;;3.15;0.70;;;13.20;49.20;;;;;;7392026;19;20015;-67
2022/10/22 03:09:43;;;;;;;1.40;0.70;;;13.20;50.20;;;;;;7393048;19;20018;-68
2022/10/22 03:12:13;;;;;;;1.95;0.75;;;13.20;50.40;;;;;;7392641;19;20010;-68
2022/10/22 03:14:42;;;;;;;0.98;0.60;;;13.20;50.70;;;;;;7393033;19;20039;-67
2022/10/22 03:17:15;;;;;;;3.42;0.88;;;13.20;51.40;;;;;;7391840;19;20014;-67
2022/10/22 03:19:44;;;;;;;4.47;0.80;;;13.20;51.70;;;;;;7392049;19;20040;-65
2022/10/22 03:22:19;;;;;;;1.48;0.90;;;13.20;51.30;;;;;;7391963;19;20380;-66
2022/10/22 03:24:52;;;;;;;3.97;0.90;;;13.30;49.90;;;;;;7393649;19;20031;-66
2022/10/22 03:27:24;;;;;;;1.02;0.70;;;13.30;50.20;;;;;;7391461;19;20407;-67
2022/10/22 03:29:54;;;;;;;2.60;0.57;;;13.20;49.60;;;;;;7391066;19;20014;-66
2022/10/22 03:32:26;;;;;;;3.35;1.10;;;13.30;49.70;;;;;;7393303;19;20009;-66
2022/10/22 03:34:56;;;;;;;3.13;0.90;;;13.30;50.50;;;;;;7393074;19;20011;-67
2022/10/22 03:37:29;;;;;;;2.88;0.98;;;13.30;50.40;;;;;;7389378;19;20014;-67
2022/10/22 03:39:59;;;;;;;1.98;0.70;;;13.20;51.20;;;;;;7391427;19;20014;-67
2022/10/22 03:42:29;;;;;;;2.50;0.70;;;13.20;51.50;;;;;;7390771;19;20014;-67
2022/10/22 03:44:58;;;;;;;1.42;0.80;;;13.20;52.00;;;;;;7392803;19;20014;-67
2022/10/22 03:47:31;;;;;;;2.45;0.70;;;13.30;52.50;;;;;;7389247;19;20034;-68
2022/10/22 03:50:01;;;;;;;2.33;0.80;;;13.20;52.20;;;;;;7390612;19;20039;-68
2022/10/22 03:52:30;;;;;;;4.30;0.90;;;13.20;52.30;;;;;;7391302;19;20011;-68
2022/10/22 03:55:00;;;;;;;3.83;1.10;;;13.20;52.30;;;;;;7391972;19;20475;-68
2022/10/22 03:57:30;;;;;;;6.22;0.80;;;13.20;52.30;;;;;;7388813;19;20494;-68
2022/10/22 04:00:00;;;;;;;2.78;0.90;;;13.20;52.40;;;;;;7397326;19;20015;-67
2022/10/22 04:02:32;;;;;;;6.25;1.25;;;13.20;52.30;;;;;;7396958;19;20031;-67
2022/10/22 04:05:02;;;;;;;3.90;1.00;;;13.20;52.90;;;;;;7400280;19;20127;-67
2022/10/22 04:07:32;;;;;;;3.10;1.05;;;13.20;53.20;;;;;;7395790;19;20505;-67
2022/10/22 04:10:01;;;;;;;2.63;0.95;;;13.20;53.50;;;;;;7398154;19;20010;-68
2022/10/22 04:12:31;;;;;;;3.88;0.90;;;13.20;53.70;;;;;;7399783;19;20478;-66
2022/10/22 04:15:01;;;;;;;1.95;0.98;;;13.20;53.80;;;;;;7399677;19;20038;-66
2022/10/22 04:17:38;;;;;;;5.13;0.93;;;13.20;54.20;;;;;;7396379;19;20025;-67
2022/10/22 04:20:10;;;;;;;2.28;0.70;;;13.20;54.30;;;;;;7397682;19;20573;-68
2022/10/22 04:22:39;;;;;;;6.70;1.30;;;13.20;54.10;;;;;;7398933;19;20006;-67
2022/10/22 04:25:10;;;;;;;4.10;1.00;;;13.10;54.60;;;;;;7399484;19;20014;-67
2022/10/22 04:27:40;;;;;;;2.85;1.00;;;13.00;55.80;;;;;;7395576;19;20477;-68
2022/10/22 04:30:11;;;;;;;5.22;1.35;;;13.00;55.40;;;;;;7397577;19;20010;-68
2022/10/22 04:32:43;;;;;;;4.85;1.00;;;13.00;55.00;;;;;;7398187;19;20038;-67
2022/10/22 04:35:13;;;;;;;2.50;1.00;;;13.00;54.40;;;;;;7399456;19;20013;-67
2022/10/22 04:37:43;;;;;;;4.00;0.93;;;13.00;54.50;;;;;;7395310;19;20015;-69
2022/10/22 04:40:14;;;;;;;3.13;1.05;;;12.90;54.80;;;;;;7397519;19;20031;-67
2022/10/22 04:42:44;;;;;;;4.35;0.90;;;12.90;54.90;;;;;;7397684;19;20010;-68
2022/10/22 04:45:14;;;;;;;3.35;1.33;;;12.80;55.00;;;;;;7398844;19;20014;-67
2022/10/22 04:47:46;;;;;;;3.75;0.90;;;12.90;56.00;;;;;;7394858;19;20121;-68
2022/10/22 04:50:16;;;;;;;2.40;0.90;;;12.90;56.10;;;;;;7396756;19;20014;-67
2022/10/22 04:52:46;;;;;;;2.42;0.88;;;12.90;56.10;;;;;;7397925;19;20007;-67
2022/10/22 04:55:16;;;;;;;2.30;0.65;;;13.00;54.30;;;;;;7397949;19;20031;-67
2022/10/22 04:57:46;;;;;;;2.22;0.70;;;13.10;52.10;;;;;;7395288;19;20022;-67
2022/10/22 05:00:16;;;;;;;1.63;0.82;;;13.20;48.40;;;;;;7396636;19;20022;-68
2022/10/22 05:02:50;;;;;;;0.85;0.70;;;13.30;46.10;;;;;;7397597;19;20038;-68
2022/10/22 05:05:20;;;;;;;;;;;13.30;44.20;;;;;;7395638;19;20351;-67
2022/10/22 05:07:52;;;;;;;1.25;0.65;;;13.40;43.10;;;;;;7394782;19;19946;-68
2022/10/22 05:10:22;;;;;;;2.15;0.60;;;13.40;42.30;;;;;;7396489;19;20387;-68
2022/10/22 05:12:51;;;;;;;1.50;0.70;;;13.40;42.70;;;;;;7397600;19;20079;-69
2022/10/22 05:15:21;;;;;;;1.83;0.65;;;13.30;42.40;;;;;;7397435;19;20034;-66
2022/10/22 05:17:53;;;;;;;0.73;0.60;;;13.30;42.20;;;;;;7393586;19;20010;-67
2022/10/22 05:20:23;;;;;;;2.78;0.85;;;13.30;42.70;;;;;;7395681;19;20017;-67
2022/10/22 05:22:53;;;;;;;5.78;1.35;;;13.30;43.70;;;;;;7397046;19;20015;-66
2022/10/22 05:25:23;;;;;;;1.25;0.70;;;13.20;44.10;;;;;;7393061;19;20014;-67
2022/10/22 05:27:52;;;;;;;2.95;0.80;;;13.10;45.00;;;;;;7394706;19;20014;-68
2022/10/22 05:30:28;;;;;;;1.10;0.70;;;13.10;46.10;;;;;;7394012;19;20051;-68
2022/10/22 05:33:01;;;;;;;1.40;0.90;;;13.00;47.10;;;;;;7396480;19;20014;-67
2022/10/22 05:35:30;;;;;;;2.03;0.82;;;13.00;48.00;;;;;;7395418;19;20474;-67
2022/10/22 05:38:00;;;;;;;3.25;1.40;;;13.00;48.00;;;;;;7394136;19;20014;-68
2022/10/22 05:40:30;;;;;;;1.40;0.85;;;12.90;48.20;;;;;;7394025;19;20373;-67
2022/10/22 05:43:00;;;;;;;2.05;1.10;;;12.90;48.80;;;;;;7396540;19;20082;-67
2022/10/22 05:45:30;;;;;;;3.50;0.95;;;13.00;48.70;;;;;;7392785;19;20667;-68
2022/10/22 05:48:02;;;;;;;1.35;0.60;;;12.90;48.80;;;;;;7393357;19;20470;-68
2022/10/22 05:50:32;;;;;;;5.47;1.02;;;12.80;50.50;;;;;;7393145;19;20022;-68
2022/10/22 05:53:02;;;;;;;1.98;0.70;;;12.80;51.50;;;;;;7395911;19;20014;-68
2022/10/22 05:55:35;;;;;;;0.90;0.68;;;12.80;52.00;;;;;;7395992;19;20058;-68
2022/10/22 05:58:05;;;;;;;1.15;0.70;;;12.80;51.80;;;;;;7393710;19;20034;-66
2022/10/22 06:00:35;;;;;;;1.30;0.90;;;12.90;51.10;;;;;;7394096;19;20011;-67
2022/10/22 06:03:08;;;;;;;1.05;0.80;;;12.80;51.30;;;;;;7396261;19;20026;-68
2022/10/22 06:05:39;;;;;;;1.35;0.75;;;12.80;51.90;;;;;;7393489;19;20110;-67
2022/10/22 06:08:08;;;;;;;3.13;1.35;;;12.80;52.20;;;;;;7392865;19;20039;-67
2022/10/22 06:10:39;;;;;;;1.55;1.10;;;12.90;53.30;;;;;;7393605;19;20370;-67
2022/10/22 06:13:08;;;;;;;2.72;1.10;;;12.90;52.90;;;;;;7396888;19;20018;-67
2022/10/22 06:15:38;;;;;;;1.75;0.90;;;13.00;52.40;;;;;;7394898;19;20042;-68
2022/10/22 06:18:11;;;;;;;5.13;0.90;;;13.00;52.20;;;;;;7393257;19;20010;-67
2022/10/22 06:20:42;;;;;;;1.45;0.80;;;13.00;52.10;;;;;;7392132;19;20026;-67
2022/10/22 06:23:11;;;;;;;6.80;1.20;;;12.90;52.10;;;;;;7393414;19;20631;-67
2022/10/22 06:25:42;;;;;;;2.53;0.95;;;13.00;52.30;;;;;;7390594;19;20512;-67
2022/10/22 06:28:12;;;;;;;2.63;1.20;;;13.00;52.10;;;;;;7392889;19;20392;-68
2022/10/22 06:30:41;;;;;;;2.42;1.25;;;13.00;51.70;;;;;;7392673;19;20013;-68
2022/10/22 06:33:17;;;;;;;1.70;1.10;;;13.00;52.10;;;;;;7394947;19;20490;-68
2022/10/22 06:35:47;;;;;;;2.28;1.30;;;13.00;52.10;;;;;;7394054;19;20051;-67
2022/10/22 06:38:17;;;;;;;1.92;1.10;;;13.10;52.20;;;;;;7393824;19;20099;-67
2022/10/22 06:40:47;;;;;;;1.88;1.02;;;13.10;52.20;;;;;;7391831;19;20374;-68
2022/10/22 06:43:16;;;;;;;1.65;1.10;;;13.20;52.40;;;;;;7394616;19;20038;-68
2022/10/22 06:45:46;;;;;;;4.47;1.80;;;13.20;52.40;;;;;;7391413;19;20022;-67
2022/10/22 06:48:19;;;;;;;3.70;1.83;;;13.30;52.80;;;;;;7393804;19;20010;-67
2022/10/22 06:50:48;;;;;;;5.13;2.00;;;13.30;52.50;;;;;;7391731;19;20585;-68
2022/10/22 06:53:18;;;;;;;3.78;1.70;;;13.40;52.50;;;;;;7394851;19;20006;-68
2022/10/22 06:55:49;;;;;;;3.45;1.80;;;13.40;51.40;;;;;;7393431;19;20100;-67
2022/10/22 06:58:18;;;;;;;4.80;1.90;;;13.50;51.00;;;;;;7393200;19;20042;-67
2022/10/22 07:00:48;;;;;;;5.80;2.00;;;13.50;49.80;;;;;;7391631;19;20013;-67
2022/10/22 07:03:20;;;;;;;5.78;2.03;;;13.60;49.60;;;;;;7394303;19;20006;-68
2022/10/22 07:05:51;;;;;;;3.63;1.70;;;13.70;48.50;;;;;;7391154;19;20376;-67
2022/10/22 07:08:21;;;;;;;3.20;1.00;;;13.80;44.70;;;;;;7393291;19;20007;-67
2022/10/22 07:10:50;;;;;;;4.50;1.55;;;13.90;39.30;;;;;;7390930;19;20483;-68
2022/10/22 07:13:20;;;;;;;3.85;1.35;;;14.00;37.70;;;;;;7394103;19;20015;-67
2022/10/22 07:15:55;;;;;;;1.40;0.85;;;14.00;37.50;;;;;;7392075;19;20029;-68
2022/10/22 07:18:27;;;;;;;5.60;1.05;;;14.10;39.10;;;;;;7389470;19;20010;-68
2022/10/22 07:20:58;;;;;;;1.92;0.95;;;14.10;37.10;;;;;;7389773;19;20027;-68
2022/10/22 07:23:28;;;;;;;2.33;0.80;;;14.20;33.70;;;;;;7392118;19;20370;-68
2022/10/22 07:25:58;;;;;;;3.78;1.00;;;14.30;30.20;;;;;;7390977;19;20010;-67
2022/10/22 07:28:28;;;;;;;3.70;1.13;;;14.40;30.70;;;;;;7391283;19;20011;-67
2022/10/22 07:30:58;;;;;;;5.47;1.55;;;14.50;29.30;;;;;;7390808;19;20015;-68
2022/10/22 07:33:30;;;;;;;3.70;1.58;;;14.60;29.70;;;;;;7390813;19;20010;-67
2022/10/22 07:36:01;;;;;;;4.18;1.58;;;14.60;28.60;;;;;;7392167;19;20542;-67
2022/10/22 07:38:31;;;;;;;1.92;1.40;;;14.70;29.40;;;;;;7392157;19;20014;-68
2022/10/22 07:41:01;;;;;;;8.00;1.92;;;14.80;29.60;;;;;;7390188;19;20019;-67
2022/10/22 07:43:31;;;;;;;3.28;1.70;;;14.80;30.90;;;;;;7391696;19;20014;-66
2022/10/22 07:46:01;;;;;;;5.32;1.60;;;14.70;27.00;;;;;;7390235;19;20498;-67
2022/10/22 07:48:34;;;;;;;4.93;1.83;;;14.70;27.10;;;;;;7391731;19;20064;-66
2022/10/22 07:51:04;;;;;;;4.20;1.38;;;14.80;27.40;;;;;;7389759;19;20014;-67
2022/10/22 07:53:34;;;;;;;3.95;1.23;;;14.80;26.10;;;;;;7391937;19;20007;-68
2022/10/22 07:56:04;;;;;;;4.15;1.38;;;14.80;27.70;;;;;;7390639;19;20010;-66
2022/10/22 07:58:34;;;;;;;3.05;1.20;;;14.90;29.50;;;;;;7390830;19;20025;-67
2022/10/22 08:01:05;;;;;;;1.52;0.88;;;15.00;30.70;;;;;;7389718;19;20011;-68
2022/10/22 08:03:38;;;;;;;3.22;1.38;;;15.10;29.20;;;;;;7391261;19;20031;-67
2022/10/22 08:06:08;;;;;;;3.17;1.30;;;15.30;27.10;;;;;;7390313;19;20699;-67
2022/10/22 08:08:38;;;;;;;1.75;0.90;;;15.30;25.10;;;;;;7390100;19;20041;-66
2022/10/22 08:11:08;;;;;;;3.30;1.13;;;15.40;23.70;;;;;;7389165;19;20424;-68
2022/10/22 08:13:38;;;;;;;1.58;1.00;;;15.50;24.70;;;;;;7391200;19;20011;-68
2022/10/22 08:16:13;;;;;;;4.63;1.13;;;15.50;23.60;;;;;;7390614;19;20086;-67
2022/10/22 08:18:46;;;;;;;2.30;1.02;;;15.40;23.10;;;;;;7389980;19;20688;-67
2022/10/22 08:21:16;;;;;;;2.03;1.08;;;15.50;24.50;;;;;;7389671;19;20034;-68
2022/10/22 08:23:46;;;;;;;4.22;0.90;;;15.50;25.00;;;;;;7390775;19;20054;-68
2022/10/22 08:26:15;;;;;;;1.77;1.00;;;15.60;22.90;;;;;;7389506;19;20014;-68
2022/10/22 08:28:45;;;;;;;1.27;0.80;;;15.60;22.60;;;;;;7390068;19;20021;-68
2022/10/22 08:31:15;;;;;;;2.92;1.00;;;15.60;22.80;;;;;;7388243;19;20002;-67
2022/10/22 08:33:48;;;;;;;3.10;1.20;;;15.70;22.30;;;;;;7389976;19;20039;-67
2022/10/22 08:36:17;;;;;;;3.05;1.25;;;15.70;21.70;;;;;;7389556;19;20035;-69
2022/10/22 08:38:47;;;;;;;2.97;0.93;;;15.80;21.70;;;;;;7390057;19;20030;-67
2022/10/22 08:41:19;;;;;;;4.13;1.27;;;15.80;21.30;;;;;;7387354;19;20031;-67
2022/10/22 08:44:20;;;;;;;2.05;0.90;;;15.90;22.20;;;;;;7389989;19;20010;-68
2022/10/22 08:47:07;;;;;;;1.60;1.08;;;15.70;21.90;;;;;;7394816;19;20038;-67
2022/10/22 08:49:43;;;;;;;4.13;1.10;;;15.80;23.10;;;;;;7395261;19;20479;-67
2022/10/22 08:52:17;;;;;;;2.22;1.20;;;15.90;23.60;;;;;;7397743;19;20415;-68
2022/10/22 08:54:53;;;;;;;3.15;1.33;;;16.00;21.40;;;;;;7397108;19;20475;-67
2022/10/22 08:57:39;;;;;;;6.30;1.42;;;16.20;21.10;;;;;;7393087;19;20010;-68
2022/10/22 09:00:15;;;;;;;1.10;0.93;;;16.30;20.30;;;;;;7395534;19;20011;-67
2022/10/22 09:03:00;;;;;;;1.77;0.93;;;16.40;20.20;;;;;;7396392;19;20467;-67
2022/10/22 09:05:41;;;;;;;4.80;1.00;;;16.50;19.60;;;;;;7395595;19;20011;-68
2022/10/22 09:08:12;;;;;;;4.22;0.93;;;16.50;19.70;;;;;;7393865;19;20475;-67
2022/10/22 09:10:48;;;;;;;3.70;0.82;;;16.60;18.00;;;;;;7395550;19;20018;-66
2022/10/22 09:13:20;;;;;;;1.30;0.90;;;16.70;17.90;;;;;;7397806;19;20037;-67
2022/10/22 09:15:55;;;;;;;1.95;0.80;;;16.70;16.60;;;;;;7396384;19;20017;-68
2022/10/22 09:18:37;;;;;;;5.80;0.77;;;16.90;16.60;;;;;;7395572;19;20038;-67
2022/10/22 09:21:19;;;;;;;2.22;0.90;;;17.10;15.30;;;;;;7394925;19;20010;-68
2022/10/22 09:24:01;;;;;;;5.28;0.75;;;17.20;12.70;;;;;;7396309;19;20006;-67
2022/10/22 09:26:36;;;;;;;2.65;0.70;;;17.20;12.70;;;;;;7393227;19;20555;-68
2022/10/22 09:29:06;;;;;;;2.38;0.50;;;17.30;10.40;;;;;;7396510;19;20526;-68
2022/10/22 09:31:36;;;;;;;1.23;0.60;;;17.50;8.20;;;;;;7393300;19;20006;-67
2022/10/22 09:34:07;;;;;;;2.10;0.70;;;17.60;7.20;;;;;;7396935;19;20082;-68
2022/10/22 09:36:40;;;;;;;2.95;0.47;;;17.60;5.50;;;;;;7393603;19;20010;-68
2022/10/22 09:39:25;;;;;;;5.18;0.60;;;17.70;3.70;;;;;;7395724;19;20015;-67
2022/10/22 09:41:55;;;;;;;1.67;0.73;;;17.80;3.80;;;;;;7395672;19;20009;-67
2022/10/22 09:44:25;;;;;;;1.70;0.50;;;17.90;2.20;;;;;;7395153;19;20031;-67
2022/10/22 09:46:55;;;;;;;1.27;0.70;;;18.00;1.90;;;;;;7392768;19;20478;-68
2022/10/22 09:49:25;;;;;;;1.55;0.57;;;18.00;1.60;;;;;;7392711;19;20462;-68
2022/10/22 09:51:59;;;;;;;1.25;0.80;;;18.00;1.00;;;;;;7394620;19;20007;-67
2022/10/22 09:54:41;;;;;;;2.65;0.60;;;18.20;1.80;;;;;;7394784;19;20014;-67
2022/10/22 09:57:20;;;;;;;2.08;0.70;;;18.20;1.00;;;;;;7390546;19;20481;-68
2022/10/22 09:59:52;;;;;;;0.63;0.47;;;18.20;1.00;;;;;;7393654;19;20566;-68
2022/10/22 10:02:25;;;;;;;1.48;0.60;;;18.20;1.00;;;;;;7394510;19;20530;-68
2022/10/22 10:05:08;;;;;;;1.05;0.60;;;18.30;1.00;;;;;;7394911;19;20018;-67
2022/10/22 10:07:41;;;;;;;1.17;0.57;;;18.40;1.00;;;;;;7390992;19;20042;-67
2022/10/22 10:10:22;;;;;;;1.17;0.50;;;18.50;1.00;;;;;;7391818;19;20030;-67
2022/10/22 10:12:58;;;;;;;2.15;0.75;;;18.50;1.00;;;;;;7394590;19;20010;-67
2022/10/22 10:15:35;;;;;;;0.70;0.40;;;18.50;1.00;;;;;;7394796;19;20011;-67
2022/10/22 10:18:16;;;;;;;2.28;0.60;;;18.50;1.00;;;;;;7391659;19;20010;-68
2022/10/22 10:20:53;;;;;;;1.65;0.90;;;18.30;1.00;;;;;;7392211;19;20010;-68
2022/10/22 10:23:32;;;;;;;1.23;0.47;;;18.20;1.00;;;;;;7395277;19;20014;-68
2022/10/22 10:26:09;;;;;;;1.10;0.60;;;18.10;1.00;;;;;;7393648;19;20010;-68
2022/10/22 10:28:56;;;;;;;1.05;0.60;;;18.30;1.00;;;;;;7392028;19;20034;-68
2022/10/22 10:31:40;;;;;;;1.73;0.50;;;18.20;1.00;;;;;;7392926;19;19999;-68
2022/10/22 10:34:24;;;;;;;1.13;0.52;;;18.20;1.00;;;;;;7392044;19;20025;-68
2022/10/22 10:37:05;;;;;;;2.15;0.70;;;18.30;1.00;;;;;;7391250;19;20015;-67
2022/10/22 10:39:47;;;;;;;1.17;0.52;;;18.50;1.00;;;;;;7391698;19;20090;-67
2022/10/22 10:42:24;;;;;;;2.67;0.68;;;18.80;1.00;;;;;;7393422;19;20459;-67
2022/10/22 10:45:06;;;;;;;1.23;0.70;;;18.70;1.00;;;;;;7392824;19;20105;-67
2022/10/22 10:48:09;;;;;;;2.83;0.77;;;18.90;1.00;;;;;;7390419;19;20015;-67
2022/10/22 10:50:50;;;;;;;1.00;0.60;;;18.90;1.00;;;;;;7391174;19;20006;-68
2022/10/22 10:53:33;;;;;;;1.63;0.60;;;19.20;1.00;;;;;;7394143;19;20018;-67
2022/10/22 10:56:16;;;;;;;1.60;0.90;;;19.20;1.00;;;;;;7392351;19;20023;-67
2022/10/22 10:58:55;;;;;;;2.15;0.60;;;19.20;1.00;;;;;;7392116;19;20035;-68
2022/10/22 11:01:36;;;;;;;1.88;0.60;;;19.10;1.00;;;;;;7390554;19;20767;-68
2022/10/22 11:04:44;;;;;;;2.10;0.60;;;18.80;1.00;;;;;;7393593;19;20010;-67
2022/10/22 11:07:19;;;;;;;4.10;0.70;;;18.60;1.00;;;;;;7388304;19;20026;-67
2022/10/22 11:10:10;;;;;;;1.67;0.68;;;18.30;1.00;;;;;;7391286;19;20260;-68
2022/10/22 11:12:47;;;;;;;0.77;0.57;;;17.90;1.00;;;;;;7392906;19;20031;-68
2022/10/22 11:15:27;;;;;;;2.25;1.05;;;18.10;1.00;;;;;;7392530;19;20006;-67
2022/10/22 11:18:06;;;;;;;2.30;0.70;;;18.20;1.00;;;;;;7390435;19;20010;-68
2022/10/22 11:20:47;;;;;;;0.70;0.50;;;18.40;1.00;;;;;;7387498;19;20339;-66
2022/10/22 11:23:20;;;;;;;0.95;0.70;;;18.50;1.00;;;;;;7393123;19;20014;-68
2022/10/22 11:25:52;;;;;;;0.95;0.60;;;18.60;1.00;;;;;;7392422;19;20019;-68
2022/10/22 11:28:30;;;;;;;1.02;0.55;;;18.80;1.00;;;;;;7390767;19;20007;-67
2022/10/22 11:31:03;;;;;;;4.88;0.70;;;18.80;1.00;;;;;;7389604;19;20026;-67
2022/10/22 11:33:44;;;;;;;2.10;0.95;;;18.70;1.00;;;;;;7392359;19;20042;-68
2022/10/22 11:36:15;;;;;;;2.22;0.70;;;18.70;1.00;;;;;;7391606;19;20038;-68
2022/10/22 11:38:44;;;;;;;1.35;0.60;;;18.50;1.00;;;;;;7390392;19;20046;-66
2022/10/22 11:41:17;;;;;;;0.95;0.70;;;18.60;1.00;;;;;;7391296;19;20010;-68
2022/10/22 11:44:00;;;;;;;1.80;0.70;;;18.90;1.00;;;;;;7390043;19;20011;-67
2022/10/22 11:46:40;;;;;;;1.90;0.77;;;19.00;1.00;;;;;;7388277;19;20039;-67
2022/10/22 11:49:20;;;;;;;1.42;0.50;;;19.10;1.00;;;;;;7390568;19;20034;-66
2022/10/22 11:51:50;;;;;;;1.42;0.50;;;18.90;1.00;;;;;;7389670;19;20515;-67
2022/10/22 11:54:43;;;;;;;1.30;0.77;;;19.00;1.00;;;;;;7389097;19;20034;-67
2022/10/22 11:57:23;;;;;;;2.38;0.60;;;19.00;1.00;;;;;;7385593;19;20727;-68
2022/10/22 11:59:59;;;;;;;4.82;0.75;;;19.00;1.00;;;;;;7388941;19;20118;-67
2022/10/22 12:02:47;;;;;;;2.92;0.85;;;19.20;1.00;;;;;;7390411;19;20022;-67
2022/10/22 12:05:33;;;;;;;2.45;0.80;;;19.30;1.00;;;;;;7392035;19;20011;-68
2022/10/22 12:08:19;;;;;;;2.45;0.70;;;19.20;1.00;;;;;;7388915;19;20741;-68
2022/10/22 12:11:06;;;;;;;5.50;1.02;;;19.10;1.00;;;;;;7388768;19;20015;-69
2022/10/22 12:13:59;;;;;;;3.47;1.30;;;19.40;1.00;;;;;;7390282;19;20014;-67
2022/10/22 12:16:38;;;;;;;2.95;0.90;;;19.50;1.00;;;;;;7388337;19;20014;-69
2022/10/22 12:19:33;;;;;;;3.90;0.95;;;19.40;1.00;;;;;;7388892;19;20066;-67
2022/10/22 12:22:15;;;;;;;3.30;1.00;;;19.50;1.00;;;;;;7398178;19;20454;-69
2022/10/22 12:24:48;;;;;;;4.07;0.80;;;19.20;1.00;;;;;;7396239;19;20011;-67
2022/10/22 12:27:23;;;;;;;2.72;0.90;;;19.30;1.00;;;;;;7394858;19;20014;-67
2022/10/22 12:29:57;;;;;;;3.60;0.68;;;19.40;1.00;;;;;;7395111;19;20038;-68
2022/10/22 12:32:36;;;;;;;2.45;0.77;;;19.30;1.00;;;;;;7395239;19;20350;-69
2022/10/22 12:35:07;;;;;;;2.45;0.70;;;19.40;1.00;;;;;;7397078;19;20019;-69
2022/10/22 12:37:38;;;;;;;1.63;0.95;;;19.50;1.00;;;;;;7393993;19;20037;-67
2022/10/22 12:40:19;;;;;;;11.18;6.03;;;19.50;1.00;;;;;;7395564;19;20146;-68
2022/10/22 12:42:55;;;;;;;2.85;0.93;;;19.60;1.00;;;;;;7397629;19;20079;-69
2022/10/22 12:45:27;;;;;;;3.53;0.82;;;19.50;1.00;;;;;;7397581;19;20038;-68
2022/10/22 12:48:01;;;;;;;1.60;0.80;;;19.60;1.00;;;;;;7394048;19;20111;-68
2022/10/22 12:50:37;;;;;;;2.75;0.80;;;19.50;1.00;;;;;;7393783;19;20018;-69
2022/10/22 12:53:07;;;;;;;2.95;0.73;;;19.60;1.00;;;;;;7397471;19;20090;-67
2022/10/22 12:55:38;;;;;;;1.75;0.60;;;19.60;1.00;;;;;;7397979;19;20038;-68
2022/10/22 12:58:09;;;;;;;4.38;1.00;;;19.50;1.00;;;;;;7394610;19;20007;-68
2022/10/22 13:00:40;;;;;;;2.40;0.80;;;19.50;1.00;;;;;;7393864;19;20014;-67
2022/10/22 13:03:26;;;;;;;4.15;1.10;;;19.60;1.00;;;;;;7397526;19;20022;-67
2022/10/22 13:05:56;;;;;;;1.52;1.00;;;19.60;1.00;;;;;;7396113;19;20467;-67
2022/10/22 13:08:29;;;;;;;3.35;1.45;;;19.70;1.00;;;;;;7394473;19;20011;-67
2022/10/22 13:11:09;;;;;;;2.45;0.80;;;19.60;1.00;;;;;;7396411;19;20502;-67
2022/10/22 13:13:46;;;;;;;3.38;1.00;;;19.60;1.00;;;;;;7396391;19;20014;-67
2022/10/22 13:16:18;;;;;;;3.65;1.48;;;19.60;1.00;;;;;;7395964;19;20038;-68
2022/10/22 13:18:50;;;;;;;3.70;0.90;;;19.70;1.00;;;;;;7395878;19;20010;-67
2022/10/22 13:21:34;;;;;;;6.38;1.17;;;19.60;1.00;;;;;;7395906;19;20316;-67
2022/10/22 13:24:20;;;;;;;4.82;1.00;;;19.70;1.00;;;;;;7396612;19;20701;-68
2022/10/22 13:26:52;;;;;;;3.08;1.05;;;19.70;1.00;;;;;;7391559;19;20419;-68